createdAt,value
2023-01-12T00:00:10.416Z,2.26
2023-01-12T00:02:37.120Z,2.54
2023-01-12T00:05:03.938Z,2.07
2023-01-12T00:07:30.571Z,1.84
2023-01-12T00:09:57.252Z,1.97
2023-01-12T00:12:23.891Z,2.01
2023-01-12T00:14:50.538Z,2.63
2023-01-12T00:17:17.176Z,2.59
2023-01-12T00:19:43.804Z,2.77
2023-01-12T00:22:10.432Z,4.32
2023-01-12T00:24:38.505Z,6.07
2023-01-12T00:27:09.487Z,6.45
2023-01-12T00:29:36.429Z,6.11
2023-01-12T00:32:03.123Z,5.94
2023-01-12T00:34:30.029Z,6.26
2023-01-12T00:36:56.861Z,6.23
2023-01-12T00:39:23.515Z,6.36
2023-01-12T00:41:50.170Z,6.58
2023-01-12T00:44:16.787Z,6.49
2023-01-12T00:46:43.440Z,6.44
2023-01-12T00:49:10.093Z,6.38
2023-01-12T00:51:36.731Z,6.26
2023-01-12T00:54:03.358Z,6.58
2023-01-12T00:56:30.964Z,7.12
2023-01-12T00:58:57.602Z,7.61
2023-01-12T01:01:24.382Z,6.87
2023-01-12T01:03:51.069Z,6.14
2023-01-12T01:06:17.723Z,6.43
2023-01-12T01:08:44.355Z,5.70
2023-01-12T01:11:11.997Z,5.68
2023-01-12T01:13:38.623Z,5.26
2023-01-12T01:16:05.507Z,5.03
2023-01-12T01:18:32.382Z,5.13
2023-01-12T01:20:59.029Z,5.20
2023-01-12T01:23:26.097Z,5.03
2023-01-12T01:25:52.750Z,4.85
2023-01-12T01:28:19.429Z,4.89
2023-01-12T01:30:46.311Z,4.14
2023-01-12T01:33:13.384Z,3.20
2023-01-12T01:35:40.021Z,3.57
2023-01-12T01:38:06.697Z,3.59
2023-01-12T01:40:33.607Z,3.76
2023-01-12T01:43:00.293Z,2.95
2023-01-12T01:45:27.054Z,2.86
2023-01-12T01:47:58.166Z,2.82
2023-01-12T01:50:37.708Z,2.61
2023-01-12T01:53:12.844Z,3.70
2023-01-12T01:55:42.991Z,4.22
2023-01-12T01:58:12.141Z,4.31
2023-01-12T02:00:38.840Z,4.20
2023-01-12T02:03:05.583Z,3.69
2023-01-12T02:05:32.242Z,3.34
2023-01-12T02:08:02.216Z,3.36
2023-01-12T02:10:28.868Z,3.16
2023-01-12T02:12:55.483Z,3.26
2023-01-12T02:15:22.545Z,3.09
2023-01-12T02:18:19.459Z,2.80
2023-01-12T02:21:42.061Z,2.85
2023-01-12T02:24:34.753Z,2.65
2023-01-12T02:27:07.043Z,2.55
2023-01-12T02:30:04.778Z,2.39
2023-01-12T02:32:36.144Z,2.31
2023-01-12T02:35:31.116Z,2.10
2023-01-12T02:38:03.595Z,1.78
2023-01-12T02:40:36.693Z,1.99
2023-01-12T02:43:22.180Z,1.96
2023-01-12T02:45:54.754Z,1.62
2023-01-12T02:48:21.258Z,1.87
2023-01-12T02:50:59.801Z,1.90
2023-01-12T02:53:42.333Z,1.44
2023-01-12T02:56:09.560Z,1.61
2023-01-12T02:58:38.772Z,2.06
2023-01-12T03:01:05.506Z,1.88
2023-01-12T03:03:32.214Z,1.88
2023-01-12T03:05:58.921Z,1.78
2023-01-12T03:08:26.540Z,1.93
2023-01-12T03:11:03.101Z,1.50
2023-01-12T03:13:30.179Z,1.63
2023-01-12T03:15:57.008Z,1.74
2023-01-12T03:18:26.490Z,1.75
2023-01-12T03:20:59.567Z,1.60
2023-01-12T03:23:29.529Z,1.60
2023-01-12T03:25:56.143Z,1.61
2023-01-12T03:28:22.911Z,1.67
2023-01-12T03:30:56.885Z,1.69
2023-01-12T03:33:23.744Z,1.72
2023-01-12T03:36:17.162Z,1.63
2023-01-12T03:38:56.703Z,1.82
2023-01-12T03:41:36.361Z,1.71
2023-01-12T03:44:04.921Z,1.85
2023-01-12T03:46:43.120Z,1.64
2023-01-12T03:49:17.329Z,1.96
2023-01-12T03:51:45.167Z,1.58
2023-01-12T03:54:11.875Z,1.67
2023-01-12T03:56:38.490Z,1.69
2023-01-12T03:59:05.137Z,1.44
2023-01-12T04:01:32.224Z,1.58
2023-01-12T04:03:58.900Z,1.83
2023-01-12T04:06:25.554Z,1.79
2023-01-12T04:08:52.238Z,1.73
2023-01-12T04:11:18.867Z,1.73
2023-01-12T04:13:45.487Z,1.83
2023-01-12T04:16:12.161Z,1.81
2023-01-12T04:18:38.818Z,1.49
2023-01-12T04:21:05.537Z,1.58
2023-01-12T04:23:33.172Z,1.64
2023-01-12T04:25:59.782Z,1.59
2023-01-12T04:28:26.423Z,1.50
2023-01-12T04:30:53.046Z,1.51
2023-01-12T04:33:19.689Z,1.45
2023-01-12T04:35:47.395Z,1.60
2023-01-12T04:38:14.063Z,1.58
2023-01-12T04:40:40.721Z,1.48
2023-01-12T04:43:08.748Z,1.54
2023-01-12T04:45:37.417Z,1.59
2023-01-12T04:48:08.512Z,1.48
2023-01-12T04:50:35.252Z,1.57
2023-01-12T04:53:02.835Z,1.52
2023-01-12T04:55:29.564Z,1.63
2023-01-12T04:57:56.567Z,1.64
2023-01-12T05:00:23.206Z,1.41
2023-01-12T05:02:49.837Z,1.52
2023-01-12T05:05:16.628Z,1.52
2023-01-12T05:07:43.242Z,1.33
2023-01-12T05:10:10.404Z,1.45
2023-01-12T05:12:37.045Z,1.45
2023-01-12T05:15:03.815Z,1.48
2023-01-12T05:17:32.014Z,1.66
2023-01-12T05:20:00.798Z,1.66
2023-01-12T05:22:27.857Z,1.63
2023-01-12T05:24:54.512Z,1.73
2023-01-12T05:27:21.153Z,1.84
2023-01-12T05:29:47.780Z,1.76
2023-01-12T05:32:14.420Z,2.03
2023-01-12T05:34:41.084Z,1.93
2023-01-12T05:37:07.716Z,1.94
2023-01-12T05:39:34.391Z,3.39
2023-01-12T05:42:01.049Z,2.07
2023-01-12T05:44:27.710Z,1.62
2023-01-12T05:46:54.357Z,1.62
2023-01-12T05:49:21.034Z,1.89
2023-01-12T05:51:47.709Z,1.55
2023-01-12T05:54:14.426Z,1.80
2023-01-12T05:56:41.063Z,1.90
2023-01-12T05:59:09.755Z,2.05
2023-01-12T06:01:36.413Z,2.55
2023-01-12T06:04:03.064Z,2.81
2023-01-12T06:06:30.310Z,2.35
2023-01-12T06:08:57.249Z,2.00
2023-01-12T06:11:23.876Z,2.07
2023-01-12T06:13:50.510Z,2.42
2023-01-12T06:16:17.185Z,2.49
2023-01-12T06:18:43.821Z,2.09
2023-01-12T06:21:10.474Z,2.03
2023-01-12T06:23:37.109Z,2.25
2023-01-12T06:26:04.453Z,1.98
2023-01-12T06:28:31.081Z,2.25
2023-01-12T06:31:01.906Z,2.17
2023-01-12T06:33:28.865Z,1.97
2023-01-12T06:35:55.503Z,2.08
2023-01-12T06:38:22.943Z,2.12
2023-01-12T06:40:49.592Z,2.49
2023-01-12T06:43:16.312Z,2.44
2023-01-12T06:45:43.083Z,1.95
2023-01-12T06:48:09.705Z,2.43
2023-01-12T06:50:36.336Z,3.12
2023-01-12T06:53:03.911Z,2.80
2023-01-12T06:55:30.535Z,2.24
2023-01-12T06:57:57.198Z,2.38
2023-01-12T07:00:23.871Z,2.12
2023-01-12T07:02:50.807Z,2.56
2023-01-12T07:05:17.509Z,2.77
2023-01-12T07:07:44.202Z,2.69
2023-01-12T07:10:11.588Z,3.09
2023-01-12T07:12:38.421Z,2.56
2023-01-12T07:15:05.271Z,2.53
2023-01-12T07:17:31.909Z,2.32
2023-01-12T07:19:58.551Z,2.20
2023-01-12T07:22:25.184Z,2.64
2023-01-12T07:24:51.791Z,2.52
2023-01-12T07:27:18.438Z,2.59
2023-01-12T07:29:45.065Z,2.61
2023-01-12T07:32:11.696Z,2.61
2023-01-12T07:34:38.338Z,2.76
2023-01-12T07:37:04.959Z,2.42
2023-01-12T07:39:31.588Z,2.51
2023-01-12T07:41:58.192Z,2.71
2023-01-12T07:44:24.806Z,2.43
2023-01-12T07:46:51.428Z,2.35
2023-01-12T07:49:18.069Z,2.35
2023-01-12T07:51:44.734Z,2.48
2023-01-12T07:54:11.430Z,2.43
2023-01-12T07:56:38.052Z,2.45
2023-01-12T07:59:04.674Z,2.33
2023-01-12T08:01:31.446Z,2.29
2023-01-12T08:03:58.151Z,1.99
2023-01-12T08:06:24.771Z,2.04
2023-01-12T08:08:53.017Z,1.97
2023-01-12T08:11:19.703Z,1.95
2023-01-12T08:13:46.330Z,2.10
2023-01-12T08:16:15.945Z,2.13
2023-01-12T08:19:08.145Z,1.82
2023-01-12T08:21:38.121Z,1.93
2023-01-12T08:24:04.884Z,1.98
2023-01-12T08:26:34.025Z,1.99
2023-01-12T08:29:12.775Z,2.12
2023-01-12T08:31:39.658Z,2.16
2023-01-12T08:34:06.307Z,2.29
2023-01-12T08:36:32.969Z,1.98
2023-01-12T08:38:59.610Z,2.16
2023-01-12T08:41:26.249Z,2.05
2023-01-12T08:43:52.889Z,2.02
2023-01-12T08:46:19.991Z,1.77
2023-01-12T08:48:46.679Z,1.86
2023-01-12T08:51:13.348Z,1.82
2023-01-12T08:53:40.021Z,1.97
2023-01-12T08:56:07.057Z,1.93
2023-01-12T08:58:33.708Z,1.89
2023-01-12T09:01:10.627Z,1.92
2023-01-12T09:03:37.683Z,1.94
2023-01-12T09:06:10.842Z,1.86
2023-01-12T09:08:37.512Z,1.78
2023-01-12T09:11:04.928Z,1.85
2023-01-12T09:13:33.117Z,1.66
2023-01-12T09:16:13.224Z,1.47
2023-01-12T09:18:40.538Z,1.66
2023-01-12T09:21:11.174Z,1.42
2023-01-12T09:23:37.929Z,1.38
2023-01-12T09:26:06.411Z,1.15
2023-01-12T09:28:33.296Z,1.18
2023-01-12T09:31:04.418Z,1.54
2023-01-12T09:33:31.584Z,1.56
2023-01-12T09:36:06.536Z,1.51
2023-01-12T09:38:35.561Z,1.52
2023-01-12T09:41:03.660Z,1.26
2023-01-12T09:43:30.328Z,1.63
2023-01-12T09:45:58.273Z,1.31
2023-01-12T09:48:24.911Z,1.26
2023-01-12T09:51:31.162Z,1.22
2023-01-12T09:54:05.352Z,1.46
2023-01-12T09:56:37.109Z,1.28
2023-01-12T09:59:22.350Z,1.09
2023-01-12T10:01:49.260Z,1.24
2023-01-12T10:04:16.328Z,1.22
2023-01-12T10:06:43.043Z,1.26
2023-01-12T10:09:15.175Z,1.24
2023-01-12T10:12:02.506Z,1.43
2023-01-12T10:15:08.131Z,1.48
2023-01-12T10:17:51.349Z,1.47
2023-01-12T10:20:30.229Z,1.59
2023-01-12T10:23:05.372Z,1.57
2023-01-12T10:25:39.389Z,1.66
2023-01-12T10:28:14.394Z,1.83
2023-01-12T10:30:41.032Z,1.78
2023-01-12T10:33:31.712Z,1.97
2023-01-12T10:36:08.619Z,1.87
2023-01-12T10:38:39.521Z,1.80
2023-01-12T10:41:13.319Z,1.74
2023-01-12T10:43:41.157Z,1.85
2023-01-12T10:46:14.895Z,1.68
2023-01-12T10:48:43.683Z,1.95
2023-01-12T10:51:20.675Z,1.61
2023-01-12T10:53:54.659Z,1.55
2023-01-12T10:56:30.979Z,1.65
2023-01-12T10:59:25.635Z,1.60
2023-01-12T11:02:07.655Z,1.66
2023-01-12T11:04:45.406Z,1.69
2023-01-12T11:07:17.246Z,1.84
2023-01-12T11:09:43.985Z,1.67
2023-01-12T11:12:38.161Z,1.55
2023-01-12T11:15:18.180Z,1.66
2023-01-12T11:17:59.359Z,1.59
2023-01-12T11:20:44.165Z,1.44
2023-01-12T11:23:16.304Z,1.61
2023-01-12T11:25:44.887Z,1.89
2023-01-12T11:28:17.453Z,1.59
2023-01-12T11:30:49.339Z,1.59
2023-01-12T11:33:19.809Z,1.67
2023-01-12T11:36:03.500Z,1.73
2023-01-12T11:38:44.707Z,1.39
2023-01-12T11:41:22.519Z,1.26
2023-01-12T11:44:29.429Z,1.42
2023-01-12T11:47:05.045Z,1.38
2023-01-12T11:49:54.900Z,1.22
2023-01-12T11:52:21.642Z,1.21
2023-01-12T11:54:48.303Z,1.23
2023-01-12T11:57:42.193Z,1.16
2023-01-12T12:00:13.968Z,1.51
2023-01-12T12:02:59.860Z,1.56
2023-01-12T12:05:40.461Z,1.57
2023-01-12T12:08:28.279Z,1.50
2023-01-12T12:11:03.909Z,1.55
2023-01-12T12:13:59.007Z,1.81
2023-01-12T12:16:48.420Z,1.88
2023-01-12T12:19:30.423Z,1.91
2023-01-12T12:22:11.873Z,2.18
2023-01-12T12:24:47.137Z,2.13
2023-01-12T12:27:39.570Z,2.55
2023-01-12T12:31:00.330Z,2.44
2023-01-12T12:33:40.178Z,2.53
2023-01-12T12:36:48.374Z,2.52
2023-01-12T12:39:44.954Z,2.46
2023-01-12T12:42:11.467Z,2.51
2023-01-12T12:45:27.034Z,2.57
2023-01-12T12:48:01.171Z,2.51
2023-01-12T12:50:31.358Z,2.55
2023-01-12T12:53:07.358Z,2.55
2023-01-12T12:55:34.143Z,2.44
2023-01-12T12:58:02.083Z,2.37
2023-01-12T13:00:33.887Z,2.61
2023-01-12T13:03:00.636Z,2.54
2023-01-12T13:05:45.680Z,2.50
2023-01-12T13:08:25.735Z,2.43
2023-01-12T13:10:56.533Z,2.49
2023-01-12T13:13:30.539Z,2.24
2023-01-12T13:16:15.512Z,2.20
2023-01-12T13:18:51.155Z,2.19
2023-01-12T13:21:27.034Z,2.35
2023-01-12T13:23:54.742Z,2.25
2023-01-12T13:26:44.686Z,2.11
2023-01-12T13:29:23.137Z,1.99
2023-01-12T13:31:57.237Z,2.27
2023-01-12T13:34:38.991Z,2.29
2023-01-12T13:37:20.753Z,2.38
2023-01-12T13:40:11.080Z,2.12
2023-01-12T13:42:37.811Z,2.50
2023-01-12T13:45:05.507Z,2.51
2023-01-12T13:47:32.185Z,2.66
2023-01-12T13:50:00.142Z,2.75
2023-01-12T13:52:29.298Z,2.92
2023-01-12T13:54:56.085Z,3.07
2023-01-12T13:57:24.598Z,3.07
2023-01-12T14:00:06.252Z,3.03
2023-01-12T14:02:33.189Z,2.96
2023-01-12T14:05:06.873Z,2.94
2023-01-12T14:07:43.207Z,2.86
2023-01-12T14:10:43.200Z,3.20
2023-01-12T14:13:31.077Z,2.84
2023-01-12T14:16:01.148Z,3.24
2023-01-12T14:18:44.836Z,2.91
2023-01-12T14:21:25.780Z,2.73
2023-01-12T14:23:52.911Z,2.60
2023-01-12T14:26:21.548Z,2.83
2023-01-12T14:28:48.893Z,2.69
2023-01-12T14:31:24.619Z,2.59
2023-01-12T14:33:52.940Z,2.57
2023-01-12T14:36:25.044Z,2.92
2023-01-12T14:38:51.687Z,3.30
2023-01-12T14:41:25.777Z,3.14
2023-01-12T14:43:52.508Z,2.53
2023-01-12T14:46:31.680Z,2.95
2023-01-12T14:48:58.199Z,2.96
2023-01-12T14:51:29.965Z,2.59
2023-01-12T14:53:59.003Z,2.54
2023-01-12T14:56:32.291Z,2.50
2023-01-12T14:59:06.342Z,2.39
2023-01-12T15:01:34.607Z,2.72
2023-01-12T15:04:01.511Z,2.89
2023-01-12T15:06:28.169Z,3.04
2023-01-12T15:08:56.995Z,3.25
2023-01-12T15:11:31.995Z,3.33
2023-01-12T15:14:00.210Z,3.14
2023-01-12T15:16:26.981Z,2.89
2023-01-12T15:18:54.027Z,2.92
2023-01-12T15:21:21.469Z,3.00
2023-01-12T15:23:48.489Z,3.16
2023-01-12T15:26:15.447Z,3.15
2023-01-12T15:28:42.441Z,3.34
2023-01-12T15:31:31.369Z,3.27
2023-01-12T15:33:58.021Z,2.96
2023-01-12T15:36:24.686Z,2.97
2023-01-12T15:38:51.393Z,2.84
2023-01-12T15:41:20.920Z,2.94
2023-01-12T15:43:47.541Z,2.72
2023-01-12T15:46:18.146Z,2.90
2023-01-12T15:48:44.772Z,2.77
2023-01-12T15:51:14.203Z,2.48
2023-01-12T15:53:41.167Z,2.72
2023-01-12T15:56:11.049Z,2.66
2023-01-12T15:58:37.702Z,2.72
2023-01-12T16:01:04.495Z,2.91
2023-01-12T16:04:00.646Z,4.29
2023-01-12T16:06:17.808Z,4.29
2023-01-12T16:08:44.470Z,3.47
2023-01-12T16:11:21.119Z,3.13
2023-01-12T16:13:47.954Z,3.46
2023-01-12T16:16:15.464Z,3.75
2023-01-12T16:18:42.175Z,3.88
2023-01-12T16:21:08.847Z,3.80
2023-01-12T16:23:35.492Z,3.88
2023-01-12T16:26:02.308Z,4.01
2023-01-12T16:28:29.172Z,3.74
2023-01-12T16:30:55.806Z,3.65
2023-01-12T16:33:22.448Z,3.99
2023-01-12T16:35:49.083Z,3.46
2023-01-12T16:38:16.414Z,3.21
2023-01-12T16:40:43.331Z,3.25
2023-01-12T16:43:09.977Z,4.66
2023-01-12T16:45:40.783Z,4.93
2023-01-12T16:48:07.509Z,3.60
2023-01-12T16:50:34.198Z,2.90
2023-01-12T16:53:00.869Z,2.63
2023-01-12T16:55:27.506Z,3.06
2023-01-12T16:57:54.165Z,2.54
2023-01-12T17:00:20.967Z,2.25
2023-01-12T17:02:47.670Z,2.78
2023-01-12T17:05:14.540Z,2.47
2023-01-12T17:07:44.816Z,2.42
2023-01-12T17:10:11.687Z,2.47
2023-01-12T17:12:38.330Z,2.59
2023-01-12T17:15:22.845Z,2.76
2023-01-12T17:17:50.323Z,2.40
2023-01-12T17:20:17.351Z,2.33
2023-01-12T17:22:44.179Z,2.29
2023-01-12T17:25:11.045Z,2.77
2023-01-12T17:27:37.936Z,2.88
2023-01-12T17:30:04.927Z,3.18
2023-01-12T17:32:32.790Z,3.48
2023-01-12T17:34:59.530Z,3.19
2023-01-12T17:37:26.181Z,3.03
2023-01-12T17:39:52.946Z,2.96
2023-01-12T17:42:19.677Z,3.21
2023-01-12T17:44:46.384Z,3.27
2023-01-12T17:47:13.095Z,3.55
2023-01-12T17:49:39.746Z,3.61
2023-01-12T17:52:06.434Z,4.64
2023-01-12T17:54:33.207Z,4.28
2023-01-12T17:56:59.877Z,4.22
2023-01-12T17:59:26.595Z,4.19
2023-01-12T18:01:53.314Z,4.08
2023-01-12T18:04:20.209Z,3.88
2023-01-12T18:06:46.873Z,3.50
2023-01-12T18:09:13.588Z,3.69
2023-01-12T18:11:40.397Z,3.67
2023-01-12T18:14:07.121Z,4.25
2023-01-12T18:16:34.007Z,4.15
2023-01-12T18:19:03.313Z,5.09
2023-01-12T18:21:29.951Z,6.27
2023-01-12T18:23:56.860Z,5.97
2023-01-12T18:26:25.587Z,15.32
2023-01-12T18:28:55.554Z,7.61
2023-01-12T18:31:24.911Z,4.45
2023-01-12T18:33:51.729Z,5.01
2023-01-12T18:36:19.995Z,7.02
2023-01-12T18:38:46.656Z,9.08
2023-01-12T18:41:13.329Z,9.79
2023-01-12T18:43:41.834Z,12.22
2023-01-12T18:46:08.639Z,12.84
2023-01-12T18:48:35.362Z,8.98
2023-01-12T18:51:02.062Z,6.86
2023-01-12T18:53:28.801Z,7.42
2023-01-12T18:55:55.713Z,7.53
2023-01-12T18:58:23.232Z,7.85
2023-01-12T19:00:49.864Z,12.19
2023-01-12T19:03:16.671Z,11.13
2023-01-12T19:05:43.351Z,12.33
2023-01-12T19:08:10.522Z,13.23
2023-01-12T19:10:37.161Z,10.14
2023-01-12T19:13:03.791Z,9.10
2023-01-12T19:15:31.747Z,9.85
2023-01-12T19:17:58.400Z,7.40
2023-01-12T19:20:25.064Z,7.72
2023-01-12T19:22:51.731Z,7.93
2023-01-12T19:25:19.908Z,7.67
2023-01-12T19:27:46.584Z,10.21
2023-01-12T19:30:13.262Z,13.05
2023-01-12T19:32:39.936Z,10.42
2023-01-12T19:35:11.260Z,10.22
2023-01-12T19:37:39.055Z,8.89
2023-01-12T19:40:06.632Z,8.58
2023-01-12T19:42:33.275Z,7.69
2023-01-12T19:44:59.928Z,12.77
2023-01-12T19:47:26.592Z,20.04
2023-01-12T19:49:53.284Z,16.87
2023-01-12T19:52:24.143Z,7.83
2023-01-12T19:54:50.820Z,6.32
2023-01-12T19:57:17.516Z,6.54
2023-01-12T19:59:44.237Z,7.60
2023-01-12T20:02:12.497Z,8.55
2023-01-12T20:04:39.300Z,11.26
2023-01-12T20:07:08.011Z,6.42
2023-01-12T20:09:34.665Z,5.86
2023-01-12T20:12:01.339Z,4.99
2023-01-12T20:14:28.044Z,5.24
2023-01-12T20:16:54.708Z,7.36
2023-01-12T20:19:24.849Z,7.49
2023-01-12T20:21:51.476Z,6.38
2023-01-12T20:24:18.436Z,5.80
2023-01-12T20:26:45.168Z,5.56
2023-01-12T20:29:11.820Z,5.66
2023-01-12T20:31:38.856Z,6.89
2023-01-12T20:34:05.533Z,7.71
2023-01-12T20:36:32.224Z,8.53
2023-01-12T20:38:58.978Z,8.83
2023-01-12T20:41:25.663Z,8.28
2023-01-12T20:43:52.375Z,8.38
2023-01-12T20:46:19.026Z,7.83
2023-01-12T20:48:45.719Z,9.11
2023-01-12T20:51:13.568Z,9.22
2023-01-12T20:53:40.763Z,8.77
2023-01-12T20:56:07.617Z,6.85
2023-01-12T20:58:34.393Z,6.89
2023-01-12T21:01:01.157Z,9.54
2023-01-12T21:03:27.963Z,9.02
2023-01-12T21:05:54.661Z,7.20
2023-01-12T21:08:21.334Z,7.44
2023-01-12T21:10:49.741Z,9.98
2023-01-12T21:13:16.397Z,7.97
2023-01-12T21:15:43.124Z,8.10
2023-01-12T21:18:09.760Z,7.84
2023-01-12T21:20:36.545Z,7.41
2023-01-12T21:23:03.208Z,6.75
2023-01-12T21:25:29.860Z,6.15
2023-01-12T21:27:56.525Z,6.07
2023-01-12T21:30:23.194Z,4.82
2023-01-12T21:32:49.854Z,4.92
2023-01-12T21:35:16.551Z,4.63
2023-01-12T21:37:43.249Z,4.78
2023-01-12T21:40:10.419Z,5.00
2023-01-12T21:42:37.101Z,4.56
2023-01-12T21:45:04.243Z,4.62
2023-01-12T21:47:34.152Z,4.75
2023-01-12T21:50:00.785Z,5.01
2023-01-12T21:52:27.414Z,6.16
2023-01-12T21:54:54.047Z,6.21
2023-01-12T21:57:20.777Z,5.93
2023-01-12T21:59:47.444Z,5.94
2023-01-12T22:02:14.234Z,5.65
2023-01-12T22:04:41.644Z,5.11
2023-01-12T22:07:08.372Z,4.73
2023-01-12T22:09:35.031Z,5.07
2023-01-12T22:12:01.709Z,6.53
2023-01-12T22:14:28.366Z,5.53
2023-01-12T22:16:55.011Z,5.49
2023-01-12T22:19:21.699Z,5.39
2023-01-12T22:21:48.356Z,5.86
2023-01-12T22:24:15.098Z,6.80
2023-01-12T22:26:42.361Z,5.41
2023-01-12T22:29:09.009Z,4.99
2023-01-12T22:31:35.701Z,5.13
2023-01-12T22:34:02.346Z,4.99
2023-01-12T22:36:29.042Z,4.42
2023-01-12T22:38:55.686Z,4.56
2023-01-12T22:41:22.338Z,4.26
2023-01-12T22:43:49.295Z,4.33
2023-01-12T22:46:20.129Z,4.03
2023-01-12T22:48:56.514Z,3.53
2023-01-12T22:51:24.122Z,3.55
2023-01-12T22:53:50.991Z,3.62
2023-01-12T22:56:17.635Z,3.44
2023-01-12T22:58:48.385Z,3.52
2023-01-12T23:01:15.716Z,3.49
2023-01-12T23:03:42.508Z,3.55
2023-01-12T23:06:13.249Z,3.58
2023-01-12T23:08:42.196Z,3.81
2023-01-12T23:11:13.784Z,4.10
2023-01-12T23:13:41.220Z,3.25
2023-01-12T23:16:08.461Z,3.46
2023-01-12T23:18:35.881Z,3.63
2023-01-12T23:21:04.818Z,3.48
2023-01-12T23:23:31.468Z,3.12
2023-01-12T23:26:02.352Z,3.31
2023-01-12T23:28:29.001Z,3.06
2023-01-12T23:31:05.104Z,3.51
2023-01-12T23:33:31.907Z,3.14
2023-01-12T23:36:08.918Z,3.53
2023-01-12T23:38:35.578Z,3.37
2023-01-12T23:41:14.006Z,3.33
2023-01-12T23:43:40.844Z,3.50
2023-01-12T23:46:07.552Z,3.65
2023-01-12T23:48:34.207Z,3.42
2023-01-12T23:51:00.864Z,3.74
2023-01-12T23:53:27.654Z,3.65
2023-01-12T23:55:54.513Z,3.71
2023-01-12T23:58:21.388Z,3.74
